createdAt,value
2022-09-11T00:00:37.070Z,62.11
2022-09-11T00:03:07.761Z,62.83
2022-09-11T00:05:40.220Z,62.52
2022-09-11T00:08:12.515Z,62.88
2022-09-11T00:10:43.167Z,63.13
2022-09-11T00:13:15.394Z,62.65
2022-09-11T00:15:45.462Z,62.75
2022-09-11T00:18:17.772Z,62.79
2022-09-11T00:20:51.408Z,62.29
2022-09-11T00:23:23.510Z,62.61
2022-09-11T00:25:54.558Z,62.71
2022-09-11T00:28:27.393Z,62.81
2022-09-11T00:31:02.568Z,62.30
2022-09-11T00:33:35.660Z,62.41
2022-09-11T00:36:08.330Z,62.53
2022-09-11T00:38:39.251Z,62.17
2022-09-11T00:41:12.543Z,62.08
2022-09-11T00:44:03.730Z,62.69
2022-09-11T00:46:38.344Z,62.84
2022-09-11T00:49:21.205Z,62.44
2022-09-11T00:51:56.338Z,62.33
2022-09-11T00:54:31.690Z,62.69
2022-09-11T00:57:05.570Z,62.33
2022-09-11T00:59:36.402Z,62.03
2022-09-11T01:02:06.328Z,62.88
2022-09-11T01:04:37.969Z,62.56
2022-09-11T01:07:06.665Z,63.18
2022-09-11T01:09:36.796Z,63.26
2022-09-11T01:12:10.437Z,63.18
2022-09-11T01:14:52.987Z,62.64
2022-09-11T01:17:29.574Z,63.11
2022-09-11T01:20:25.112Z,62.93
2022-09-11T01:23:27.798Z,62.88
2022-09-11T01:26:14.799Z,62.52
2022-09-11T01:28:53.489Z,62.60
2022-09-11T01:31:31.002Z,62.83
2022-09-11T01:34:06.693Z,62.60
2022-09-11T01:36:46.421Z,62.66
2022-09-11T01:39:21.952Z,62.77
2022-09-11T01:42:02.520Z,62.69
2022-09-11T01:44:38.064Z,62.63
2022-09-11T01:47:11.783Z,63.01
2022-09-11T01:49:46.611Z,62.62
2022-09-11T01:52:21.124Z,63.16
2022-09-11T01:55:00.565Z,62.61
2022-09-11T01:57:38.185Z,62.73
2022-09-11T02:00:11.995Z,62.26
2022-09-11T02:02:59.821Z,61.91
2022-09-11T02:05:32.715Z,62.24
2022-09-11T02:08:08.521Z,62.58
2022-09-11T02:10:45.478Z,62.55
2022-09-11T02:13:17.946Z,62.58
2022-09-11T02:15:52.353Z,62.70
2022-09-11T02:18:28.429Z,62.59
2022-09-11T02:20:58.174Z,63.26
2022-09-11T02:23:26.816Z,63.99
2022-09-11T02:25:55.609Z,63.30
2022-09-11T02:28:27.363Z,63.71
2022-09-11T02:30:58.600Z,64.13
2022-09-11T02:33:30.509Z,63.97
2022-09-11T02:36:09.204Z,64.14
2022-09-11T02:38:53.192Z,63.97
2022-09-11T02:41:29.605Z,64.34
2022-09-11T02:44:09.761Z,63.94
2022-09-11T02:46:58.538Z,63.57
2022-09-11T02:49:42.375Z,63.70
2022-09-11T02:52:29.306Z,63.72
2022-09-11T02:55:08.162Z,63.78
2022-09-11T02:57:42.762Z,63.97
2022-09-11T03:00:14.229Z,64.12
2022-09-11T03:02:46.444Z,63.68
2022-09-11T03:05:16.161Z,63.59
2022-09-11T03:07:44.986Z,63.76
2022-09-11T03:10:13.780Z,63.55
2022-09-11T03:12:47.317Z,63.93
2022-09-11T03:15:17.373Z,63.71
2022-09-11T03:17:47.308Z,63.48
2022-09-11T03:20:16.865Z,63.69
2022-09-11T03:22:47.455Z,63.83
2022-09-11T03:25:16.130Z,63.67
2022-09-11T03:27:44.495Z,63.73
2022-09-11T03:30:14.661Z,63.70
2022-09-11T03:32:42.741Z,63.26
2022-09-11T03:35:15.150Z,63.17
2022-09-11T03:37:43.271Z,63.03
2022-09-11T03:40:11.794Z,63.76
2022-09-11T03:42:39.771Z,63.44
2022-09-11T03:45:09.268Z,63.05
2022-09-11T03:47:40.485Z,63.42
2022-09-11T03:50:09.622Z,63.48
2022-09-11T03:52:39.549Z,63.56
2022-09-11T03:55:08.919Z,63.19
2022-09-11T03:57:39.083Z,63.20
2022-09-11T04:00:10.027Z,63.48
2022-09-11T04:02:49.718Z,63.67
2022-09-11T04:05:39.024Z,63.13
2022-09-11T04:08:08.738Z,63.20
2022-09-11T04:10:38.264Z,63.23
2022-09-11T04:13:07.113Z,63.12
2022-09-11T04:15:36.148Z,63.73
2022-09-11T04:18:07.252Z,63.80
2022-09-11T04:20:43.029Z,63.97
2022-09-11T04:23:14.648Z,63.39
2022-09-11T04:25:46.251Z,63.88
2022-09-11T04:28:15.533Z,63.75
2022-09-11T04:30:44.055Z,63.56
2022-09-11T04:33:12.980Z,63.53
2022-09-11T04:35:41.553Z,63.64
2022-09-11T04:38:10.762Z,64.04
2022-09-11T04:40:41.799Z,63.66
2022-09-11T04:43:12.076Z,63.62
2022-09-11T04:45:40.522Z,63.88
2022-09-11T04:48:10.258Z,63.41
2022-09-11T04:50:40.705Z,63.61
2022-09-11T04:53:15.691Z,63.71
2022-09-11T04:55:48.080Z,63.14
2022-09-11T04:58:16.800Z,63.33
2022-09-11T05:00:45.825Z,63.48
2022-09-11T05:03:15.112Z,63.03
2022-09-11T05:05:44.875Z,62.68
2022-09-11T05:08:14.311Z,62.51
2022-09-11T05:10:43.405Z,63.05
2022-09-11T05:13:14.994Z,62.95
2022-09-11T05:15:43.746Z,63.11
2022-09-11T05:18:12.711Z,63.48
2022-09-11T05:20:41.564Z,63.83
2022-09-11T05:23:12.021Z,63.91
2022-09-11T05:25:40.329Z,63.18
2022-09-11T05:28:08.899Z,63.78
2022-09-11T05:30:38.797Z,63.34
2022-09-11T05:33:08.958Z,63.45
2022-09-11T05:35:37.547Z,63.80
2022-09-11T05:38:06.565Z,63.37
2022-09-11T05:40:35.099Z,62.98
2022-09-11T05:43:07.752Z,63.18
2022-09-11T05:45:38.883Z,63.21
2022-09-11T05:48:08.482Z,63.05
2022-09-11T05:50:39.945Z,63.23
2022-09-11T05:53:09.229Z,63.11
2022-09-11T05:55:38.101Z,63.33
2022-09-11T05:58:07.923Z,63.37
2022-09-11T06:00:40.536Z,64.25
2022-09-11T06:03:11.487Z,64.51
2022-09-11T06:05:44.525Z,64.23
2022-09-11T06:08:14.079Z,64.64
2022-09-11T06:10:47.476Z,64.69
2022-09-11T06:13:17.831Z,64.68
2022-09-11T06:15:50.019Z,64.64
2022-09-11T06:18:18.739Z,65.30
2022-09-11T06:20:59.252Z,65.45
2022-09-11T06:23:31.859Z,65.42
2022-09-11T06:26:05.913Z,65.56
2022-09-11T06:28:39.251Z,65.68
2022-09-11T06:31:13.318Z,65.66
2022-09-11T06:33:42.340Z,65.35
2022-09-11T06:36:15.285Z,65.95
2022-09-11T06:38:46.521Z,65.74
2022-09-11T06:41:17.875Z,66.07
2022-09-11T06:43:47.398Z,66.16
2022-09-11T06:46:19.370Z,66.13
2022-09-11T06:48:51.133Z,66.21
2022-09-11T06:51:27.643Z,66.31
2022-09-11T06:53:58.484Z,66.22
2022-09-11T06:56:32.714Z,65.75
2022-09-11T06:59:04.361Z,66.28
2022-09-11T07:01:37.228Z,66.38
2022-09-11T07:04:08.285Z,66.34
2022-09-11T07:06:38.603Z,66.09
2022-09-11T07:09:07.318Z,66.34
2022-09-11T07:11:45.287Z,66.26
2022-09-11T07:14:14.380Z,66.49
2022-09-11T07:16:49.786Z,66.58
2022-09-11T07:19:19.224Z,66.70
2022-09-11T07:21:48.089Z,66.36
2022-09-11T07:24:18.962Z,66.42
2022-09-11T07:26:47.807Z,66.40
2022-09-11T07:29:22.421Z,66.95
2022-09-11T07:31:52.358Z,67.33
2022-09-11T07:34:20.540Z,66.90
2022-09-11T07:36:52.225Z,67.45
2022-09-11T07:39:22.949Z,68.44
2022-09-11T07:41:59.233Z,68.51
2022-09-11T07:44:32.095Z,67.89
2022-09-11T07:47:03.095Z,68.81
2022-09-11T07:49:38.104Z,67.33
2022-09-11T07:52:07.805Z,67.22
2022-09-11T07:54:43.203Z,67.17
2022-09-11T07:57:13.025Z,67.46
2022-09-11T07:59:43.639Z,66.82
2022-09-11T08:02:15.680Z,67.47
2022-09-11T08:04:47.332Z,67.30
2022-09-11T08:07:17.852Z,66.48
2022-09-11T08:09:46.774Z,66.62
2022-09-11T08:12:14.881Z,66.64
2022-09-11T08:14:43.369Z,65.70
2022-09-11T08:17:19.701Z,66.35
2022-09-11T08:19:48.733Z,65.89
2022-09-11T08:22:16.730Z,65.72
2022-09-11T08:24:46.630Z,65.10
2022-09-11T08:27:17.827Z,65.06
2022-09-11T08:29:47.009Z,64.53
2022-09-11T08:32:15.211Z,64.72
2022-09-11T08:34:44.509Z,64.62
2022-09-11T08:37:12.769Z,62.97
2022-09-11T08:39:41.051Z,63.02
2022-09-11T08:42:16.196Z,63.16
2022-09-11T08:44:50.633Z,63.56
2022-09-11T08:47:42.051Z,61.83
2022-09-11T08:50:20.386Z,61.68
2022-09-11T08:55:29.512Z,61.06
2022-09-11T08:58:03.434Z,60.69
2022-09-11T09:00:40.818Z,60.73
2022-09-11T09:03:41.817Z,60.50
2022-09-11T09:06:28.132Z,59.65
2022-09-11T09:09:05.110Z,59.65
2022-09-11T09:11:41.726Z,59.10
2022-09-11T09:14:41.891Z,58.62
2022-09-11T09:17:16.480Z,58.88
2022-09-11T09:19:52.998Z,58.80
2022-09-11T09:22:34.244Z,59.23
2022-09-11T09:25:12.413Z,61.03
2022-09-11T09:27:47.944Z,61.73
2022-09-11T09:30:19.787Z,61.67
2022-09-11T09:32:55.070Z,61.94
2022-09-11T09:35:31.704Z,60.96
2022-09-11T09:38:03.864Z,59.22
2022-09-11T09:40:37.776Z,57.06
2022-09-11T09:43:34.617Z,56.24
2022-09-11T09:46:16.861Z,55.35
2022-09-11T09:48:45.144Z,54.88
2022-09-11T09:51:16.339Z,56.01
2022-09-11T09:53:54.513Z,57.49
2022-09-11T09:56:24.753Z,60.57
2022-09-11T09:59:02.786Z,62.23
2022-09-11T10:01:49.510Z,62.55
2022-09-11T10:04:21.672Z,62.82
2022-09-11T10:06:52.299Z,63.29
2022-09-11T10:09:25.725Z,63.39
2022-09-11T10:11:59.030Z,63.21
2022-09-11T10:14:50.385Z,63.31
2022-09-11T10:17:22.567Z,62.97
2022-09-11T10:19:52.089Z,62.60
2022-09-11T10:22:32.697Z,62.56
2022-09-11T10:25:14.070Z,62.89
2022-09-11T10:27:59.274Z,62.16
2022-09-11T10:30:40.137Z,62.20
2022-09-11T10:33:22.762Z,62.21
2022-09-11T10:35:55.873Z,62.34
2022-09-11T10:38:32.620Z,62.69
2022-09-11T10:41:10.514Z,62.57
2022-09-11T10:43:50.402Z,62.28
2022-09-11T10:46:41.870Z,62.61
2022-09-11T10:49:19.863Z,62.25
2022-09-11T10:52:05.797Z,61.69
2022-09-11T10:54:54.509Z,61.56
2022-09-11T10:57:33.158Z,60.78
2022-09-11T11:00:13.151Z,60.89
2022-09-11T11:02:45.365Z,60.67
2022-09-11T11:05:22.097Z,58.54
2022-09-11T11:08:24.485Z,59.55
2022-09-11T11:11:15.405Z,59.25
2022-09-11T11:14:02.656Z,57.18
2022-09-11T11:16:45.397Z,55.66
2022-09-11T11:19:28.402Z,56.12
2022-09-11T11:22:10.930Z,56.21
2022-09-11T11:24:56.417Z,56.00
2022-09-11T11:27:50.940Z,56.13
2022-09-11T11:30:21.733Z,55.96
2022-09-11T11:33:12.323Z,56.87
2022-09-11T11:35:49.573Z,56.70
2022-09-11T11:38:25.913Z,57.00
2022-09-11T11:41:03.181Z,57.35
2022-09-11T11:43:37.680Z,57.37
2022-09-11T11:46:18.160Z,56.88
2022-09-11T11:48:52.793Z,56.76
2022-09-11T11:51:27.599Z,56.74
2022-09-11T11:54:05.244Z,56.60
2022-09-11T11:56:41.067Z,56.70
2022-09-11T11:59:16.793Z,56.11
2022-09-11T12:01:51.864Z,56.62
2022-09-11T12:04:33.595Z,56.41
2022-09-11T12:07:06.071Z,55.58
2022-09-11T12:09:35.864Z,54.38
2022-09-11T12:12:08.048Z,54.36
2022-09-11T12:14:36.282Z,53.36
2022-09-11T12:17:21.310Z,52.61
2022-09-11T12:20:33.341Z,52.76
2022-09-11T12:23:03.797Z,52.10
2022-09-11T12:26:06.119Z,52.32
2022-09-11T12:28:37.987Z,51.36
2022-09-11T12:31:11.283Z,49.80
2022-09-11T12:33:57.480Z,49.19
2022-09-11T12:36:36.866Z,47.66
2022-09-11T12:39:19.549Z,51.22
2022-09-11T12:41:50.854Z,51.24
2022-09-11T12:44:34.550Z,51.85
2022-09-11T12:47:16.703Z,52.37
2022-09-11T12:49:55.714Z,52.05
2022-09-11T12:52:35.324Z,52.30
2022-09-11T12:55:30.697Z,53.13
2022-09-11T12:58:02.545Z,53.58
2022-09-11T13:00:43.755Z,53.73
2022-09-11T13:03:19.838Z,53.45
2022-09-11T13:06:00.666Z,53.73
2022-09-11T13:08:33.775Z,53.80
2022-09-11T13:11:38.975Z,54.58
2022-09-11T13:14:49.818Z,54.83
2022-09-11T13:17:30.824Z,54.09
2022-09-11T13:20:23.087Z,53.27
2022-09-11T13:22:58.678Z,53.11
2022-09-11T13:25:28.294Z,53.91
2022-09-11T13:28:02.112Z,53.79
2022-09-11T13:30:31.193Z,53.20
2022-09-11T13:33:07.248Z,52.15
2022-09-11T13:35:40.558Z,52.25
2022-09-11T13:38:16.732Z,50.54
2022-09-11T13:40:49.481Z,49.80
2022-09-11T13:43:21.919Z,49.46
2022-09-11T13:45:50.138Z,50.32
2022-09-11T13:48:23.512Z,49.98
2022-09-11T13:50:54.918Z,48.46
2022-09-11T13:53:26.087Z,48.15
2022-09-11T13:55:56.751Z,46.94
2022-09-11T13:58:33.249Z,46.23
2022-09-11T14:01:13.404Z,46.57
2022-09-11T14:03:47.564Z,45.85
2022-09-11T14:06:20.699Z,44.67
2022-09-11T14:08:57.059Z,45.30
2022-09-11T14:11:31.765Z,45.71
2022-09-11T14:14:08.425Z,44.81
2022-09-11T14:16:46.388Z,45.17
2022-09-11T14:19:19.411Z,45.51
2022-09-11T14:21:50.049Z,46.06
2022-09-11T14:24:29.911Z,46.00
2022-09-11T14:26:58.576Z,46.03
2022-09-11T14:29:32.653Z,46.84
2022-09-11T14:32:31.399Z,46.60
2022-09-11T14:35:01.550Z,46.81
2022-09-11T14:37:35.372Z,47.12
2022-09-11T14:40:08.784Z,47.31
2022-09-11T14:42:39.153Z,47.30
2022-09-11T14:45:11.367Z,47.39
2022-09-11T14:47:44.491Z,46.75
2022-09-11T14:50:14.377Z,46.80
2022-09-11T14:52:46.504Z,46.38
2022-09-11T14:55:18.954Z,46.33
2022-09-11T14:57:50.314Z,46.51
2022-09-11T15:00:20.658Z,46.57
2022-09-11T15:02:49.025Z,46.96
2022-09-11T15:05:20.454Z,46.69
2022-09-11T15:07:49.233Z,46.05
2022-09-11T15:10:18.977Z,46.91
2022-09-11T15:12:47.981Z,47.27
2022-09-11T15:15:19.353Z,47.97
2022-09-11T15:17:50.408Z,48.33
2022-09-11T15:20:20.874Z,48.27
2022-09-11T15:22:49.411Z,48.11
2022-09-11T15:25:18.978Z,48.05
2022-09-11T15:27:50.635Z,47.94
2022-09-11T15:30:19.830Z,48.35
2022-09-11T15:32:48.346Z,48.41
2022-09-11T15:35:21.350Z,49.04
2022-09-11T15:37:50.708Z,49.53
2022-09-11T15:40:20.337Z,48.81
2022-09-11T15:42:49.940Z,48.56
2022-09-11T15:45:18.662Z,48.95
2022-09-11T15:47:47.322Z,48.69
2022-09-11T15:50:24.862Z,48.52
2022-09-11T15:52:54.815Z,49.14
2022-09-11T15:55:27.587Z,49.08
2022-09-11T15:57:58.390Z,48.87
2022-09-11T16:00:26.967Z,48.61
2022-09-11T16:02:57.681Z,49.00
2022-09-11T16:05:27.386Z,49.06
2022-09-11T16:07:56.344Z,49.02
2022-09-11T16:10:29.181Z,48.91
2022-09-11T16:12:58.935Z,49.16
2022-09-11T16:15:27.326Z,49.09
2022-09-11T16:17:55.533Z,49.13
2022-09-11T16:20:25.014Z,49.03
2022-09-11T16:22:53.317Z,48.36
2022-09-11T16:25:21.287Z,48.24
2022-09-11T16:27:51.202Z,48.44
2022-09-11T16:30:42.591Z,48.34
2022-09-11T16:33:07.582Z,48.14
2022-09-11T16:35:36.227Z,48.37
2022-09-11T16:38:04.841Z,48.71
2022-09-11T16:40:33.172Z,48.47
2022-09-11T16:43:02.933Z,48.57
2022-09-11T16:45:32.750Z,48.37
2022-09-11T16:48:00.883Z,48.33
2022-09-11T16:50:29.161Z,48.46
2022-09-11T16:52:57.106Z,49.01
2022-09-11T16:55:25.414Z,48.90
2022-09-11T16:57:53.647Z,49.02
2022-09-11T17:00:23.135Z,49.31
2022-09-11T17:02:52.362Z,49.55
2022-09-11T17:05:20.914Z,49.42
2022-09-11T17:07:49.286Z,49.20
2022-09-11T17:10:17.333Z,49.33
2022-09-11T17:12:45.614Z,49.53
2022-09-11T17:15:14.367Z,49.81
2022-09-11T17:17:45.463Z,49.78
2022-09-11T17:20:17.145Z,50.34
2022-09-11T17:22:47.505Z,50.47
2022-09-11T17:25:17.414Z,50.72
2022-09-11T17:27:47.009Z,50.76
2022-09-11T17:30:17.429Z,51.50
2022-09-11T17:32:49.420Z,51.31
2022-09-11T17:35:19.186Z,51.76
2022-09-11T17:37:48.952Z,51.41
2022-09-11T17:40:18.738Z,52.19
2022-09-11T17:42:48.698Z,52.17
2022-09-11T17:45:17.465Z,52.10
2022-09-11T17:47:48.615Z,52.04
2022-09-11T17:50:18.470Z,52.35
2022-09-11T17:52:48.767Z,52.26
2022-09-11T17:55:17.417Z,52.42
2022-09-11T17:57:52.765Z,52.69
2022-09-11T18:00:23.684Z,52.37
2022-09-11T18:02:57.568Z,52.71
2022-09-11T18:05:28.995Z,52.77
2022-09-11T18:08:01.035Z,52.84
2022-09-11T18:10:30.905Z,52.93
2022-09-11T18:12:59.725Z,52.97
2022-09-11T18:15:28.949Z,52.90
2022-09-11T18:17:59.005Z,53.11
2022-09-11T18:20:27.701Z,53.12
2022-09-11T18:22:56.163Z,52.96
2022-09-11T18:25:26.291Z,53.03
2022-09-11T18:27:54.821Z,53.02
2022-09-11T18:30:22.910Z,53.00
2022-09-11T18:32:50.954Z,53.45
2022-09-11T18:35:20.805Z,53.46
2022-09-11T18:37:49.063Z,53.34
2022-09-11T18:40:17.941Z,53.61
2022-09-11T18:42:46.629Z,52.99
2022-09-11T18:45:14.852Z,53.65
2022-09-11T18:47:52.696Z,53.92
2022-09-11T18:50:23.353Z,53.89
2022-09-11T18:52:52.000Z,53.69
2022-09-11T18:55:22.834Z,53.79
2022-09-11T18:57:51.820Z,53.94
2022-09-11T19:00:22.249Z,53.94
2022-09-11T19:02:51.544Z,54.46
2022-09-11T19:05:20.393Z,54.52
2022-09-11T19:07:50.529Z,54.56
2022-09-11T19:10:19.278Z,54.17
2022-09-11T19:12:49.197Z,54.41
2022-09-11T19:15:19.313Z,54.72
2022-09-11T19:17:49.513Z,54.69
2022-09-11T19:20:20.708Z,54.74
2022-09-11T19:22:51.688Z,54.73
2022-09-11T19:25:20.387Z,54.83
2022-09-11T19:27:49.062Z,54.35
2022-09-11T19:30:19.924Z,54.67
2022-09-11T19:32:49.580Z,54.62
2022-09-11T19:35:19.245Z,55.14
2022-09-11T19:37:48.038Z,55.12
2022-09-11T19:40:19.881Z,55.04
2022-09-11T19:42:48.994Z,55.09
2022-09-11T19:45:18.836Z,55.41
2022-09-11T19:47:47.398Z,55.33
2022-09-11T19:50:21.532Z,55.20
2022-09-11T19:52:51.322Z,55.38
2022-09-11T19:55:21.254Z,55.29
2022-09-11T19:57:49.637Z,55.47
2022-09-11T20:00:22.500Z,55.73
2022-09-11T20:02:54.767Z,55.72
2022-09-11T20:05:23.164Z,55.98
2022-09-11T20:07:51.927Z,55.73
2022-09-11T20:10:23.964Z,56.14
2022-09-11T20:12:53.477Z,55.79
2022-09-11T20:15:22.597Z,55.60
2022-09-11T20:17:52.873Z,56.50
2022-09-11T20:20:21.241Z,56.23
2022-09-11T20:22:49.905Z,56.24
2022-09-11T20:25:19.583Z,56.26
2022-09-11T20:27:50.702Z,56.35
2022-09-11T20:30:20.393Z,56.14
2022-09-11T20:32:49.324Z,55.92
2022-09-11T20:35:18.786Z,56.16
2022-09-11T20:37:48.837Z,56.00
2022-09-11T20:40:18.802Z,56.51
2022-09-11T20:42:47.951Z,56.12
2022-09-11T20:45:19.783Z,56.48
2022-09-11T20:47:49.631Z,56.69
2022-09-11T20:50:19.053Z,56.93
2022-09-11T20:52:50.587Z,57.06
2022-09-11T20:55:20.317Z,57.03
2022-09-11T20:57:49.534Z,56.74
2022-09-11T21:00:19.516Z,56.76
2022-09-11T21:02:49.044Z,56.99
2022-09-11T21:05:19.159Z,56.50
2022-09-11T21:07:48.187Z,56.38
2022-09-11T21:10:18.146Z,56.62
2022-09-11T21:12:48.080Z,56.97
2022-09-11T21:15:19.437Z,56.98
2022-09-11T21:17:58.338Z,57.55
2022-09-11T21:20:30.319Z,57.42
2022-09-11T21:23:00.894Z,57.23
2022-09-11T21:25:30.747Z,57.22
2022-09-11T21:28:02.802Z,57.10
2022-09-11T21:30:31.538Z,56.72
2022-09-11T21:33:02.598Z,57.29
2022-09-11T21:35:31.361Z,57.37
2022-09-11T21:38:01.861Z,57.23
2022-09-11T21:40:34.203Z,56.75
2022-09-11T21:43:03.539Z,57.19
2022-09-11T21:45:32.007Z,57.21
2022-09-11T21:48:02.072Z,56.79
2022-09-11T21:50:31.356Z,57.03
2022-09-11T21:53:03.047Z,57.05
2022-09-11T21:55:37.888Z,57.07
2022-09-11T21:58:09.267Z,56.45
2022-09-11T22:00:42.939Z,56.57
2022-09-11T22:03:17.381Z,57.05
2022-09-11T22:05:48.829Z,55.82
2022-09-11T22:08:20.320Z,56.47
2022-09-11T22:10:51.262Z,56.52
2022-09-11T22:13:21.101Z,56.81
2022-09-11T22:15:52.521Z,56.90
2022-09-11T22:18:22.969Z,56.50
2022-09-11T22:20:51.009Z,56.54
2022-09-11T22:23:21.952Z,56.33
2022-09-11T22:25:59.167Z,56.54
2022-09-11T22:28:27.684Z,56.41
2022-09-11T22:30:57.716Z,56.05
2022-09-11T22:33:27.993Z,56.23
2022-09-11T22:35:56.008Z,55.90
2022-09-11T22:38:24.025Z,56.33
2022-09-11T22:40:54.666Z,56.49
2022-09-11T22:43:24.541Z,56.51
2022-09-11T22:45:54.570Z,56.50
2022-09-11T22:48:23.454Z,56.61
2022-09-11T22:50:57.197Z,56.11
2022-09-11T22:53:28.512Z,56.49
2022-09-11T22:55:59.267Z,55.94
2022-09-11T22:58:32.007Z,56.57
2022-09-11T23:01:04.235Z,56.36
2022-09-11T23:03:36.196Z,56.47
2022-09-11T23:06:24.354Z,55.98
2022-09-11T23:08:56.225Z,56.67
2022-09-11T23:21:33.816Z,56.45
2022-09-11T23:24:03.919Z,56.07
2022-09-11T23:26:35.596Z,56.02
2022-09-11T23:29:06.910Z,56.32
2022-09-11T23:31:41.425Z,55.68
2022-09-11T23:34:19.560Z,55.92
2022-09-11T23:36:50.987Z,56.00
2022-09-11T23:39:19.836Z,55.79
2022-09-11T23:41:50.870Z,55.94
2022-09-11T23:44:23.925Z,55.92
2022-09-11T23:46:52.269Z,55.99
2022-09-11T23:49:20.859Z,55.99
2022-09-11T23:51:51.490Z,56.25
2022-09-11T23:54:24.066Z,56.29
2022-09-11T23:56:54.296Z,55.91
2022-09-11T23:59:23.220Z,56.19
